sensor_id;sensor_type;location;lat;lon;timestamp;P1;durP1;ratioP1;P2;durP2;ratioP2
73872;SDS011;62206;47.568;9.364;2022-11-23T16:24:43;3.38;;;2.17;;
73872;SDS011;62206;47.568;9.364;2022-11-23T16:27:40;5.07;;;3.00;;
73872;SDS011;62206;47.568;9.364;2022-11-23T16:31:00;8.43;;;4.55;;
73872;SDS011;62206;47.568;9.364;2022-11-23T16:33:51;6.88;;;3.30;;
73872;SDS011;62206;47.568;9.364;2022-11-23T16:36:31;3.75;;;2.40;;
73872;SDS011;62206;47.568;9.364;2022-11-23T16:50:33;6.65;;;4.85;;
73872;SDS011;62206;47.568;9.364;2022-11-23T16:53:22;6.38;;;4.00;;
73872;SDS011;62206;47.568;9.364;2022-11-23T16:56:41;3.88;;;2.88;;
73872;SDS011;62206;47.568;9.364;2022-11-23T17:00:16;6.15;;;4.90;;
73872;SDS011;62206;47.568;9.364;2022-11-23T17:03:47;11.27;;;5.53;;
73872;SDS011;62206;47.568;9.364;2022-11-23T19:00:47;1.73;;;1.63;;
73872;SDS011;62206;47.568;9.364;2022-11-23T19:03:22;1.60;;;1.50;;
73872;SDS011;62206;47.568;9.364;2022-11-23T19:05:59;2.53;;;2.33;;
73872;SDS011;62206;47.568;9.364;2022-11-23T19:09:04;2.13;;;2.03;;
73872;SDS011;62206;47.568;9.364;2022-11-23T19:15:26;3.40;;;2.78;;
73872;SDS011;62206;47.568;9.364;2022-11-23T20:20:30;2.22;;;2.08;;
73872;SDS011;62206;47.568;9.364;2022-11-23T20:23:17;2.17;;;2.00;;
73872;SDS011;62206;47.568;9.364;2022-11-23T20:26:39;4.18;;;2.08;;
73872;SDS011;62206;47.568;9.364;2022-11-23T20:30:23;2.47;;;2.28;;
73872;SDS011;62206;47.568;9.364;2022-11-23T20:33:46;2.22;;;1.98;;
73872;SDS011;62206;47.568;9.364;2022-11-23T20:37:17;3.45;;;2.40;;
73872;SDS011;62206;47.568;9.364;2022-11-23T20:40:15;1.65;;;1.50;;
73872;SDS011;62206;47.568;9.364;2022-11-23T20:43:02;2.55;;;1.70;;
73872;SDS011;62206;47.568;9.364;2022-11-23T20:45:45;1.83;;;1.73;;
73872;SDS011;62206;47.568;9.364;2022-11-23T20:48:31;2.10;;;1.27;;
73872;SDS011;62206;47.568;9.364;2022-11-23T20:51:03;2.67;;;2.08;;
73872;SDS011;62206;47.568;9.364;2022-11-23T20:53:38;6.78;;;2.28;;
73872;SDS011;62206;47.568;9.364;2022-11-23T20:56:32;3.90;;;2.03;;
73872;SDS011;62206;47.568;9.364;2022-11-23T20:59:37;1.85;;;1.65;;
73872;SDS011;62206;47.568;9.364;2022-11-23T21:02:30;3.03;;;1.83;;
73872;SDS011;62206;47.568;9.364;2022-11-23T21:05:01;4.15;;;2.10;;
73872;SDS011;62206;47.568;9.364;2022-11-23T21:08:10;2.75;;;1.48;;
73872;SDS011;62206;47.568;9.364;2022-11-23T21:11:07;3.22;;;1.77;;
73872;SDS011;62206;47.568;9.364;2022-11-23T21:13:54;2.40;;;1.55;;
73872;SDS011;62206;47.568;9.364;2022-11-23T21:17:10;1.73;;;1.40;;
73872;SDS011;62206;47.568;9.364;2022-11-23T21:19:40;2.78;;;2.15;;
73872;SDS011;62206;47.568;9.364;2022-11-23T21:22:21;4.40;;;1.38;;
73872;SDS011;62206;47.568;9.364;2022-11-23T21:24:50;2.38;;;1.20;;
73872;SDS011;62206;47.568;9.364;2022-11-23T21:27:28;4.75;;;1.73;;
73872;SDS011;62206;47.568;9.364;2022-11-23T21:30:13;1.73;;;1.63;;
73872;SDS011;62206;47.568;9.364;2022-11-23T21:33:01;3.67;;;1.02;;
73872;SDS011;62206;47.568;9.364;2022-11-23T21:35:59;4.40;;;1.85;;
73872;SDS011;62206;47.568;9.364;2022-11-23T21:39:00;2.45;;;1.20;;
73872;SDS011;62206;47.568;9.364;2022-11-23T23:04:20;1.13;;;0.50;;
73872;SDS011;62206;47.568;9.364;2022-11-23T23:17:30;0.60;;;0.60;;
73872;SDS011;62206;47.568;9.364;2022-11-23T23:20:07;2.92;;;1.13;;
73872;SDS011;62206;47.568;9.364;2022-11-23T23:22:37;1.80;;;1.05;;
73872;SDS011;62206;47.568;9.364;2022-11-23T23:31:54;0.98;;;0.65;;
73872;SDS011;62206;47.568;9.364;2022-11-23T23:38:01;1.60;;;0.80;;
73872;SDS011;62206;47.568;9.364;2022-11-23T23:43:34;0.75;;;0.70;;
73872;SDS011;62206;47.568;9.364;2022-11-23T23:46:02;2.80;;;0.95;;
